sensor_id;sensor_type;location;lat;lon;timestamp;P1;durP1;ratioP1;P2;durP2;ratioP2
47153;SDS011;32907;41.412;2.164;2023-02-01T00:01:18;14.70;;;8.50;;
47153;SDS011;32907;41.412;2.164;2023-02-01T00:03:46;14.15;;;9.38;;
47153;SDS011;32907;41.412;2.164;2023-02-01T00:06:14;13.93;;;9.57;;
47153;SDS011;32907;41.412;2.164;2023-02-01T00:08:42;11.93;;;8.30;;
47153;SDS011;32907;41.412;2.164;2023-02-01T00:11:11;11.27;;;8.65;;
47153;SDS011;32907;41.412;2.164;2023-02-01T00:13:41;12.68;;;8.65;;
47153;SDS011;32907;41.412;2.164;2023-02-01T00:16:33;13.88;;;8.40;;
47153;SDS011;32907;41.412;2.164;2023-02-01T00:19:04;13.77;;;8.85;;
47153;SDS011;32907;41.412;2.164;2023-02-01T00:21:35;15.15;;;9.57;;
47153;SDS011;32907;41.412;2.164;2023-02-01T00:24:03;12.27;;;9.02;;
47153;SDS011;32907;41.412;2.164;2023-02-01T00:26:34;12.38;;;8.57;;
47153;SDS011;32907;41.412;2.164;2023-02-01T00:29:08;13.93;;;8.52;;
47153;SDS011;32907;41.412;2.164;2023-02-01T00:31:38;15.82;;;9.43;;
47153;SDS011;32907;41.412;2.164;2023-02-01T00:34:07;16.55;;;10.02;;
47153;SDS011;32907;41.412;2.164;2023-02-01T00:36:37;11.57;;;9.13;;
47153;SDS011;32907;41.412;2.164;2023-02-01T00:39:05;15.30;;;9.45;;
47153;SDS011;32907;41.412;2.164;2023-02-01T00:41:33;13.10;;;8.95;;
47153;SDS011;32907;41.412;2.164;2023-02-01T00:44:02;14.45;;;9.48;;
47153;SDS011;32907;41.412;2.164;2023-02-01T00:46:30;13.85;;;9.82;;
47153;SDS011;32907;41.412;2.164;2023-02-01T00:48:59;12.27;;;9.38;;
47153;SDS011;32907;41.412;2.164;2023-02-01T00:51:28;14.15;;;9.20;;
47153;SDS011;32907;41.412;2.164;2023-02-01T00:53:57;12.43;;;8.52;;
47153;SDS011;32907;41.412;2.164;2023-02-01T00:56:25;12.50;;;9.30;;
47153;SDS011;32907;41.412;2.164;2023-02-01T00:58:55;13.68;;;9.52;;
47153;SDS011;32907;41.412;2.164;2023-02-01T01:01:27;11.27;;;8.98;;
47153;SDS011;32907;41.412;2.164;2023-02-01T01:03:56;13.18;;;9.38;;
47153;SDS011;32907;41.412;2.164;2023-02-01T01:06:29;14.98;;;9.60;;
47153;SDS011;32907;41.412;2.164;2023-02-01T01:09:00;13.13;;;9.57;;
47153;SDS011;32907;41.412;2.164;2023-02-01T01:11:31;15.90;;;9.52;;
47153;SDS011;32907;41.412;2.164;2023-02-01T01:14:00;13.35;;;9.52;;
47153;SDS011;32907;41.412;2.164;2023-02-01T01:16:29;11.45;;;9.07;;
47153;SDS011;32907;41.412;2.164;2023-02-01T01:18:58;11.18;;;8.77;;
47153;SDS011;32907;41.412;2.164;2023-02-01T01:21:27;11.75;;;8.88;;
47153;SDS011;32907;41.412;2.164;2023-02-01T01:23:57;11.43;;;8.68;;
47153;SDS011;32907;41.412;2.164;2023-02-01T01:26:25;12.32;;;8.98;;
47153;SDS011;32907;41.412;2.164;2023-02-01T01:28:58;11.27;;;8.30;;
47153;SDS011;32907;41.412;2.164;2023-02-01T01:31:26;12.52;;;8.27;;
47153;SDS011;32907;41.412;2.164;2023-02-01T01:33:56;11.07;;;8.73;;
47153;SDS011;32907;41.412;2.164;2023-02-01T01:36:26;10.55;;;8.15;;
47153;SDS011;32907;41.412;2.164;2023-02-01T01:38:55;10.70;;;7.82;;
47153;SDS011;32907;41.412;2.164;2023-02-01T01:41:24;10.93;;;8.10;;
47153;SDS011;32907;41.412;2.164;2023-02-01T01:44:02;9.93;;;7.60;;
47153;SDS011;32907;41.412;2.164;2023-02-01T01:46:35;8.65;;;7.20;;
47153;SDS011;32907;41.412;2.164;2023-02-01T01:49:12;8.77;;;7.13;;
47153;SDS011;32907;41.412;2.164;2023-02-01T01:51:44;9.73;;;7.53;;
47153;SDS011;32907;41.412;2.164;2023-02-01T01:54:23;10.10;;;7.03;;
47153;SDS011;32907;41.412;2.164;2023-02-01T01:57:10;9.23;;;7.32;;
47153;SDS011;32907;41.412;2.164;2023-02-01T01:59:46;10.15;;;7.18;;
47153;SDS011;32907;41.412;2.164;2023-02-01T02:02:16;9.32;;;6.88;;
47153;SDS011;32907;41.412;2.164;2023-02-01T02:04:45;8.60;;;6.13;;
47153;SDS011;32907;41.412;2.164;2023-02-01T02:07:16;7.50;;;6.50;;
47153;SDS011;32907;41.412;2.164;2023-02-01T02:09:48;9.82;;;6.90;;
47153;SDS011;32907;41.412;2.164;2023-02-01T02:12:27;9.05;;;7.20;;
47153;SDS011;32907;41.412;2.164;2023-02-01T02:14:55;9.20;;;7.07;;
47153;SDS011;32907;41.412;2.164;2023-02-01T02:17:30;10.32;;;8.10;;
47153;SDS011;32907;41.412;2.164;2023-02-01T02:20:30;10.63;;;8.13;;
47153;SDS011;32907;41.412;2.164;2023-02-01T02:29:07;9.65;;;7.15;;
47153;SDS011;32907;41.412;2.164;2023-02-01T02:32:05;9.02;;;7.13;;
47153;SDS011;32907;41.412;2.164;2023-02-01T02:43:20;9.10;;;7.13;;
47153;SDS011;32907;41.412;2.164;2023-02-01T02:46:22;8.40;;;6.60;;
47153;SDS011;32907;41.412;2.164;2023-02-01T02:52:14;7.78;;;6.50;;
47153;SDS011;32907;41.412;2.164;2023-02-01T02:55:04;10.60;;;6.93;;
47153;SDS011;32907;41.412;2.164;2023-02-01T02:57:39;7.97;;;6.03;;
47153;SDS011;32907;41.412;2.164;2023-02-01T03:00:29;7.05;;;5.63;;
47153;SDS011;32907;41.412;2.164;2023-02-01T03:03:18;6.93;;;5.75;;
47153;SDS011;32907;41.412;2.164;2023-02-01T03:06:08;7.97;;;6.05;;
47153;SDS011;32907;41.412;2.164;2023-02-01T03:08:43;6.97;;;6.18;;
47153;SDS011;32907;41.412;2.164;2023-02-01T03:11:13;8.07;;;6.25;;
47153;SDS011;32907;41.412;2.164;2023-02-01T03:16:15;8.45;;;6.43;;
47153;SDS011;32907;41.412;2.164;2023-02-01T03:21:33;6.40;;;5.65;;
47153;SDS011;32907;41.412;2.164;2023-02-01T03:24:49;7.78;;;5.60;;
47153;SDS011;32907;41.412;2.164;2023-02-01T03:27:52;6.55;;;5.75;;
47153;SDS011;32907;41.412;2.164;2023-02-01T03:30:11;7.97;;;6.00;;
47153;SDS011;32907;41.412;2.164;2023-02-01T03:32:50;6.25;;;5.28;;
47153;SDS011;32907;41.412;2.164;2023-02-01T03:38:48;7.10;;;5.95;;
47153;SDS011;32907;41.412;2.164;2023-02-01T03:47:14;7.13;;;6.28;;
47153;SDS011;32907;41.412;2.164;2023-02-01T03:49:58;7.10;;;6.00;;
47153;SDS011;32907;41.412;2.164;2023-02-01T03:55:09;7.55;;;5.88;;
47153;SDS011;32907;41.412;2.164;2023-02-01T03:57:41;8.60;;;6.60;;
47153;SDS011;32907;41.412;2.164;2023-02-01T04:02:50;7.93;;;6.75;;
47153;SDS011;32907;41.412;2.164;2023-02-01T04:05:19;8.02;;;6.45;;
47153;SDS011;32907;41.412;2.164;2023-02-01T04:07:56;7.72;;;6.20;;
47153;SDS011;32907;41.412;2.164;2023-02-01T04:10:26;6.75;;;5.97;;
47153;SDS011;32907;41.412;2.164;2023-02-01T04:12:55;6.68;;;5.60;;
47153;SDS011;32907;41.412;2.164;2023-02-01T04:15:22;10.25;;;6.30;;
47153;SDS011;32907;41.412;2.164;2023-02-01T04:17:50;7.70;;;5.32;;
47153;SDS011;32907;41.412;2.164;2023-02-01T04:20:18;6.88;;;5.57;;
47153;SDS011;32907;41.412;2.164;2023-02-01T04:22:47;7.28;;;6.15;;
47153;SDS011;32907;41.412;2.164;2023-02-01T04:25:14;7.80;;;6.15;;
47153;SDS011;32907;41.412;2.164;2023-02-01T04:27:46;7.32;;;6.32;;
47153;SDS011;32907;41.412;2.164;2023-02-01T04:30:15;9.30;;;5.72;;
47153;SDS011;32907;41.412;2.164;2023-02-01T04:32:43;8.05;;;5.97;;
47153;SDS011;32907;41.412;2.164;2023-02-01T04:35:11;6.50;;;5.78;;
47153;SDS011;32907;41.412;2.164;2023-02-01T04:37:39;7.65;;;6.05;;
47153;SDS011;32907;41.412;2.164;2023-02-01T04:40:07;7.40;;;5.68;;
47153;SDS011;32907;41.412;2.164;2023-02-01T04:42:35;7.60;;;5.70;;
47153;SDS011;32907;41.412;2.164;2023-02-01T04:45:03;5.95;;;5.35;;
47153;SDS011;32907;41.412;2.164;2023-02-01T04:47:32;6.15;;;5.32;;
47153;SDS011;32907;41.412;2.164;2023-02-01T04:49:59;6.47;;;5.55;;
47153;SDS011;32907;41.412;2.164;2023-02-01T04:52:28;6.78;;;5.80;;
47153;SDS011;32907;41.412;2.164;2023-02-01T04:54:56;5.80;;;5.18;;
47153;SDS011;32907;41.412;2.164;2023-02-01T04:57:26;5.85;;;5.10;;
47153;SDS011;32907;41.412;2.164;2023-02-01T04:59:54;7.70;;;6.55;;
47153;SDS011;32907;41.412;2.164;2023-02-01T05:02:22;6.43;;;5.57;;
47153;SDS011;32907;41.412;2.164;2023-02-01T05:04:50;7.15;;;6.15;;
47153;SDS011;32907;41.412;2.164;2023-02-01T05:07:18;7.32;;;6.07;;
47153;SDS011;32907;41.412;2.164;2023-02-01T05:09:46;6.53;;;5.60;;
47153;SDS011;32907;41.412;2.164;2023-02-01T05:12:14;6.53;;;5.15;;
47153;SDS011;32907;41.412;2.164;2023-02-01T05:15:00;6.65;;;5.82;;
47153;SDS011;32907;41.412;2.164;2023-02-01T05:17:28;6.50;;;5.80;;
47153;SDS011;32907;41.412;2.164;2023-02-01T05:19:56;6.75;;;4.65;;
47153;SDS011;32907;41.412;2.164;2023-02-01T05:22:24;5.80;;;5.15;;
47153;SDS011;32907;41.412;2.164;2023-02-01T05:24:52;6.22;;;5.47;;
47153;SDS011;32907;41.412;2.164;2023-02-01T05:27:20;7.25;;;6.28;;
47153;SDS011;32907;41.412;2.164;2023-02-01T05:29:47;8.85;;;6.80;;
47153;SDS011;32907;41.412;2.164;2023-02-01T05:32:15;8.10;;;6.57;;
47153;SDS011;32907;41.412;2.164;2023-02-01T05:34:49;7.95;;;6.80;;
47153;SDS011;32907;41.412;2.164;2023-02-01T05:37:17;8.05;;;6.80;;
47153;SDS011;32907;41.412;2.164;2023-02-01T05:39:45;8.85;;;7.28;;
47153;SDS011;32907;41.412;2.164;2023-02-01T05:42:13;8.02;;;6.40;;
47153;SDS011;32907;41.412;2.164;2023-02-01T05:44:42;7.63;;;6.18;;
47153;SDS011;32907;41.412;2.164;2023-02-01T05:47:10;8.02;;;5.70;;
47153;SDS011;32907;41.412;2.164;2023-02-01T05:49:38;7.40;;;5.55;;
47153;SDS011;32907;41.412;2.164;2023-02-01T05:52:05;6.20;;;5.60;;
47153;SDS011;32907;41.412;2.164;2023-02-01T05:54:33;6.18;;;5.50;;
47153;SDS011;32907;41.412;2.164;2023-02-01T05:57:02;7.65;;;5.68;;
47153;SDS011;32907;41.412;2.164;2023-02-01T05:59:30;8.63;;;5.70;;
47153;SDS011;32907;41.412;2.164;2023-02-01T06:01:58;8.43;;;5.72;;
47153;SDS011;32907;41.412;2.164;2023-02-01T06:04:26;8.60;;;5.57;;
47153;SDS011;32907;41.412;2.164;2023-02-01T06:06:55;6.63;;;5.93;;
47153;SDS011;32907;41.412;2.164;2023-02-01T06:09:23;8.88;;;6.72;;
47153;SDS011;32907;41.412;2.164;2023-02-01T06:11:50;6.88;;;6.10;;
47153;SDS011;32907;41.412;2.164;2023-02-01T06:14:18;7.07;;;6.38;;
47153;SDS011;32907;41.412;2.164;2023-02-01T06:16:46;8.27;;;6.95;;
47153;SDS011;32907;41.412;2.164;2023-02-01T06:19:14;7.65;;;6.85;;
47153;SDS011;32907;41.412;2.164;2023-02-01T06:21:42;7.85;;;6.53;;
47153;SDS011;32907;41.412;2.164;2023-02-01T06:24:10;7.72;;;6.93;;
47153;SDS011;32907;41.412;2.164;2023-02-01T06:26:38;8.93;;;6.95;;
47153;SDS011;32907;41.412;2.164;2023-02-01T06:29:11;10.02;;;7.65;;
47153;SDS011;32907;41.412;2.164;2023-02-01T06:31:39;10.55;;;7.10;;
47153;SDS011;32907;41.412;2.164;2023-02-01T06:34:07;8.25;;;6.82;;
47153;SDS011;32907;41.412;2.164;2023-02-01T06:36:35;9.15;;;6.82;;
47153;SDS011;32907;41.412;2.164;2023-02-01T06:39:03;8.73;;;6.90;;
47153;SDS011;32907;41.412;2.164;2023-02-01T06:41:31;7.07;;;6.30;;
47153;SDS011;32907;41.412;2.164;2023-02-01T06:44:01;8.95;;;6.60;;
47153;SDS011;32907;41.412;2.164;2023-02-01T06:46:30;10.80;;;7.13;;
47153;SDS011;32907;41.412;2.164;2023-02-01T06:48:58;8.57;;;6.45;;
47153;SDS011;32907;41.412;2.164;2023-02-01T06:51:27;8.55;;;6.93;;
47153;SDS011;32907;41.412;2.164;2023-02-01T06:53:56;9.07;;;6.75;;
47153;SDS011;32907;41.412;2.164;2023-02-01T06:56:24;9.80;;;7.30;;
47153;SDS011;32907;41.412;2.164;2023-02-01T06:58:53;7.40;;;6.22;;
47153;SDS011;32907;41.412;2.164;2023-02-01T07:01:21;8.80;;;6.38;;
47153;SDS011;32907;41.412;2.164;2023-02-01T07:03:49;10.35;;;6.15;;
47153;SDS011;32907;41.412;2.164;2023-02-01T07:06:18;9.05;;;6.80;;
47153;SDS011;32907;41.412;2.164;2023-02-01T07:08:47;8.35;;;6.55;;
47153;SDS011;32907;41.412;2.164;2023-02-01T07:11:15;12.13;;;7.43;;
47153;SDS011;32907;41.412;2.164;2023-02-01T07:13:44;14.38;;;6.90;;
47153;SDS011;32907;41.412;2.164;2023-02-01T07:16:14;11.50;;;6.57;;
47153;SDS011;32907;41.412;2.164;2023-02-01T07:18:43;10.15;;;6.75;;
47153;SDS011;32907;41.412;2.164;2023-02-01T07:21:12;11.40;;;7.38;;
47153;SDS011;32907;41.412;2.164;2023-02-01T07:23:40;8.98;;;6.72;;
47153;SDS011;32907;41.412;2.164;2023-02-01T07:26:09;9.30;;;6.80;;
47153;SDS011;32907;41.412;2.164;2023-02-01T07:28:40;8.05;;;6.43;;
47153;SDS011;32907;41.412;2.164;2023-02-01T07:31:09;10.07;;;6.85;;
47153;SDS011;32907;41.412;2.164;2023-02-01T07:33:44;10.13;;;7.22;;
47153;SDS011;32907;41.412;2.164;2023-02-01T07:36:14;7.53;;;6.18;;
47153;SDS011;32907;41.412;2.164;2023-02-01T07:38:43;6.90;;;6.20;;
47153;SDS011;32907;41.412;2.164;2023-02-01T07:41:12;7.82;;;6.32;;
47153;SDS011;32907;41.412;2.164;2023-02-01T07:43:41;7.60;;;6.40;;
47153;SDS011;32907;41.412;2.164;2023-02-01T07:46:09;8.52;;;6.65;;
47153;SDS011;32907;41.412;2.164;2023-02-01T07:48:38;9.00;;;6.60;;
47153;SDS011;32907;41.412;2.164;2023-02-01T07:51:08;9.90;;;6.03;;
47153;SDS011;32907;41.412;2.164;2023-02-01T07:53:39;7.28;;;5.90;;
47153;SDS011;32907;41.412;2.164;2023-02-01T07:56:12;7.78;;;6.05;;
47153;SDS011;32907;41.412;2.164;2023-02-01T07:58:48;11.85;;;6.32;;
47153;SDS011;32907;41.412;2.164;2023-02-01T08:01:18;8.68;;;5.82;;
47153;SDS011;32907;41.412;2.164;2023-02-01T08:03:48;8.25;;;6.40;;
47153;SDS011;32907;41.412;2.164;2023-02-01T08:06:17;9.85;;;5.70;;
47153;SDS011;32907;41.412;2.164;2023-02-01T08:08:47;8.88;;;5.80;;
47153;SDS011;32907;41.412;2.164;2023-02-01T08:11:16;7.57;;;6.07;;
47153;SDS011;32907;41.412;2.164;2023-02-01T08:13:45;8.75;;;6.43;;
47153;SDS011;32907;41.412;2.164;2023-02-01T08:16:14;6.90;;;5.95;;
47153;SDS011;32907;41.412;2.164;2023-02-01T08:18:43;7.63;;;6.20;;
47153;SDS011;32907;41.412;2.164;2023-02-01T08:23:45;7.00;;;5.28;;
47153;SDS011;32907;41.412;2.164;2023-02-01T08:28:52;10.25;;;5.82;;
47153;SDS011;32907;41.412;2.164;2023-02-01T08:31:25;10.32;;;6.57;;
47153;SDS011;32907;41.412;2.164;2023-02-01T08:33:55;8.55;;;7.20;;
47153;SDS011;32907;41.412;2.164;2023-02-01T08:36:25;6.97;;;5.78;;
47153;SDS011;32907;41.412;2.164;2023-02-01T08:38:56;7.32;;;5.95;;
47153;SDS011;32907;41.412;2.164;2023-02-01T08:41:28;8.10;;;6.35;;
47153;SDS011;32907;41.412;2.164;2023-02-01T08:43:57;7.03;;;6.20;;
47153;SDS011;32907;41.412;2.164;2023-02-01T08:46:26;8.73;;;5.78;;
47153;SDS011;32907;41.412;2.164;2023-02-01T08:48:54;9.13;;;5.78;;
47153;SDS011;32907;41.412;2.164;2023-02-01T08:51:22;14.27;;;6.88;;
47153;SDS011;32907;41.412;2.164;2023-02-01T08:53:52;7.32;;;5.80;;
47153;SDS011;32907;41.412;2.164;2023-02-01T08:56:20;11.20;;;6.55;;
47153;SDS011;32907;41.412;2.164;2023-02-01T08:58:47;9.68;;;6.13;;
47153;SDS011;32907;41.412;2.164;2023-02-01T09:01:16;8.10;;;6.38;;
47153;SDS011;32907;41.412;2.164;2023-02-01T09:03:44;11.02;;;6.28;;
47153;SDS011;32907;41.412;2.164;2023-02-01T09:06:14;8.43;;;6.18;;
47153;SDS011;32907;41.412;2.164;2023-02-01T09:08:43;7.43;;;6.15;;
47153;SDS011;32907;41.412;2.164;2023-02-01T09:11:13;7.80;;;6.65;;
47153;SDS011;32907;41.412;2.164;2023-02-01T09:13:42;10.85;;;6.75;;
47153;SDS011;32907;41.412;2.164;2023-02-01T09:16:12;7.68;;;5.72;;
47153;SDS011;32907;41.412;2.164;2023-02-01T09:18:40;8.93;;;5.97;;
47153;SDS011;32907;41.412;2.164;2023-02-01T09:23:57;6.28;;;5.20;;
47153;SDS011;32907;41.412;2.164;2023-02-01T09:26:25;7.88;;;6.00;;
47153;SDS011;32907;41.412;2.164;2023-02-01T09:28:59;8.20;;;5.38;;
47153;SDS011;32907;41.412;2.164;2023-02-01T09:31:28;6.43;;;5.35;;
47153;SDS011;32907;41.412;2.164;2023-02-01T09:33:59;7.95;;;5.50;;
47153;SDS011;32907;41.412;2.164;2023-02-01T09:36:29;7.63;;;5.32;;
47153;SDS011;32907;41.412;2.164;2023-02-01T09:38:57;6.93;;;5.35;;
47153;SDS011;32907;41.412;2.164;2023-02-01T09:44:08;6.78;;;4.95;;
47153;SDS011;32907;41.412;2.164;2023-02-01T09:46:48;9.00;;;5.53;;
47153;SDS011;32907;41.412;2.164;2023-02-01T09:49:19;9.00;;;5.07;;
47153;SDS011;32907;41.412;2.164;2023-02-01T09:51:52;7.88;;;5.18;;
47153;SDS011;32907;41.412;2.164;2023-02-01T09:54:24;8.20;;;5.03;;
47153;SDS011;32907;41.412;2.164;2023-02-01T09:56:58;7.60;;;6.13;;
47153;SDS011;32907;41.412;2.164;2023-02-01T09:59:53;10.10;;;6.07;;
47153;SDS011;32907;41.412;2.164;2023-02-01T10:02:38;11.02;;;7.65;;
47153;SDS011;32907;41.412;2.164;2023-02-01T10:05:11;9.07;;;6.97;;
47153;SDS011;32907;41.412;2.164;2023-02-01T10:10:45;8.80;;;7.03;;
47153;SDS011;32907;41.412;2.164;2023-02-01T10:13:25;10.15;;;7.07;;
47153;SDS011;32907;41.412;2.164;2023-02-01T10:16:06;9.57;;;6.97;;
47153;SDS011;32907;41.412;2.164;2023-02-01T10:19:10;9.77;;;6.43;;
47153;SDS011;32907;41.412;2.164;2023-02-01T10:29:59;12.38;;;8.52;;
47153;SDS011;32907;41.412;2.164;2023-02-01T10:32:42;11.32;;;8.68;;
47153;SDS011;32907;41.412;2.164;2023-02-01T10:35:17;14.25;;;8.35;;
47153;SDS011;32907;41.412;2.164;2023-02-01T10:37:50;12.07;;;7.50;;
47153;SDS011;32907;41.412;2.164;2023-02-01T10:40:21;11.10;;;6.75;;
47153;SDS011;32907;41.412;2.164;2023-02-01T10:42:52;7.07;;;5.22;;
47153;SDS011;32907;41.412;2.164;2023-02-01T10:45:25;8.98;;;5.57;;
47153;SDS011;32907;41.412;2.164;2023-02-01T10:47:57;8.68;;;5.43;;
47153;SDS011;32907;41.412;2.164;2023-02-01T10:53:31;5.93;;;4.55;;
47153;SDS011;32907;41.412;2.164;2023-02-01T10:56:08;5.43;;;4.45;;
47153;SDS011;32907;41.412;2.164;2023-02-01T10:58:44;5.93;;;4.38;;
47153;SDS011;32907;41.412;2.164;2023-02-01T11:01:19;8.43;;;4.30;;
47153;SDS011;32907;41.412;2.164;2023-02-01T11:03:56;7.85;;;4.18;;
47153;SDS011;32907;41.412;2.164;2023-02-01T11:09:19;5.85;;;4.47;;
47153;SDS011;32907;41.412;2.164;2023-02-01T11:14:26;7.00;;;4.35;;
47153;SDS011;32907;41.412;2.164;2023-02-01T11:17:20;5.50;;;4.47;;
47153;SDS011;32907;41.412;2.164;2023-02-01T11:19:56;6.47;;;4.30;;
47153;SDS011;32907;41.412;2.164;2023-02-01T11:22:26;5.88;;;4.70;;
47153;SDS011;32907;41.412;2.164;2023-02-01T11:24:56;6.60;;;4.78;;
47153;SDS011;32907;41.412;2.164;2023-02-01T11:27:27;7.55;;;5.20;;
47153;SDS011;32907;41.412;2.164;2023-02-01T11:29:57;9.48;;;5.60;;
47153;SDS011;32907;41.412;2.164;2023-02-01T11:32:29;7.82;;;5.68;;
47153;SDS011;32907;41.412;2.164;2023-02-01T11:35:02;7.53;;;4.93;;
47153;SDS011;32907;41.412;2.164;2023-02-01T11:37:34;8.02;;;5.53;;
47153;SDS011;32907;41.412;2.164;2023-02-01T11:40:49;8.60;;;5.68;;
47153;SDS011;32907;41.412;2.164;2023-02-01T11:46:17;7.90;;;4.88;;
47153;SDS011;32907;41.412;2.164;2023-02-01T11:48:43;6.30;;;4.97;;
47153;SDS011;32907;41.412;2.164;2023-02-01T12:01:50;8.60;;;5.15;;
47153;SDS011;32907;41.412;2.164;2023-02-01T12:12:58;22.25;;;6.18;;
47153;SDS011;32907;41.412;2.164;2023-02-01T12:27:23;7.97;;;5.28;;
47153;SDS011;32907;41.412;2.164;2023-02-01T12:38:19;5.95;;;4.22;;
47153;SDS011;32907;41.412;2.164;2023-02-01T12:41:05;5.75;;;3.72;;
47153;SDS011;32907;41.412;2.164;2023-02-01T12:46:22;9.25;;;7.68;;
47153;SDS011;32907;41.412;2.164;2023-02-01T12:49:13;9.40;;;6.72;;
47153;SDS011;32907;41.412;2.164;2023-02-01T12:51:48;7.15;;;5.53;;
47153;SDS011;32907;41.412;2.164;2023-02-01T12:54:21;15.40;;;6.18;;
47153;SDS011;32907;41.412;2.164;2023-02-01T12:56:59;6.97;;;4.70;;
47153;SDS011;32907;41.412;2.164;2023-02-01T12:59:38;6.43;;;4.43;;
47153;SDS011;32907;41.412;2.164;2023-02-01T13:05:04;15.00;;;6.68;;
47153;SDS011;32907;41.412;2.164;2023-02-01T13:08:38;14.98;;;8.00;;
47153;SDS011;32907;41.412;2.164;2023-02-01T13:13:23;15.85;;;8.15;;
47153;SDS011;32907;41.412;2.164;2023-02-01T13:16:06;11.50;;;7.18;;
47153;SDS011;32907;41.412;2.164;2023-02-01T13:18:46;10.60;;;6.55;;
47153;SDS011;32907;41.412;2.164;2023-02-01T13:21:25;10.20;;;5.60;;
47153;SDS011;32907;41.412;2.164;2023-02-01T13:23:58;13.23;;;5.93;;
47153;SDS011;32907;41.412;2.164;2023-02-01T13:26:27;13.60;;;8.15;;
47153;SDS011;32907;41.412;2.164;2023-02-01T13:28:59;36.53;;;19.30;;
47153;SDS011;32907;41.412;2.164;2023-02-01T13:42:56;19.52;;;10.57;;
47153;SDS011;32907;41.412;2.164;2023-02-01T13:45:31;19.10;;;11.27;;
47153;SDS011;32907;41.412;2.164;2023-02-01T13:48:03;17.23;;;9.73;;
47153;SDS011;32907;41.412;2.164;2023-02-01T13:50:37;17.00;;;9.20;;
47153;SDS011;32907;41.412;2.164;2023-02-01T13:53:16;21.63;;;13.80;;
47153;SDS011;32907;41.412;2.164;2023-02-01T13:55:55;25.67;;;15.13;;
47153;SDS011;32907;41.412;2.164;2023-02-01T13:58:30;24.77;;;15.95;;
47153;SDS011;32907;41.412;2.164;2023-02-01T14:03:58;30.05;;;18.05;;
47153;SDS011;32907;41.412;2.164;2023-02-01T14:11:48;21.67;;;13.63;;
47153;SDS011;32907;41.412;2.164;2023-02-01T14:22:45;19.25;;;12.35;;
47153;SDS011;32907;41.412;2.164;2023-02-01T14:24:51;23.45;;;14.05;;
47153;SDS011;32907;41.412;2.164;2023-02-01T14:27:23;22.30;;;13.13;;
47153;SDS011;32907;41.412;2.164;2023-02-01T14:29:56;18.55;;;11.27;;
47153;SDS011;32907;41.412;2.164;2023-02-01T14:32:31;15.45;;;9.90;;
47153;SDS011;32907;41.412;2.164;2023-02-01T14:38:01;14.65;;;9.02;;
47153;SDS011;32907;41.412;2.164;2023-02-01T14:40:31;17.42;;;11.68;;
47153;SDS011;32907;41.412;2.164;2023-02-01T14:43:01;19.67;;;11.93;;
47153;SDS011;32907;41.412;2.164;2023-02-01T14:50:47;13.05;;;9.93;;
47153;SDS011;32907;41.412;2.164;2023-02-01T14:53:17;16.77;;;11.18;;
47153;SDS011;32907;41.412;2.164;2023-02-01T14:55:59;14.70;;;10.65;;
47153;SDS011;32907;41.412;2.164;2023-02-01T15:01:06;12.90;;;9.68;;
47153;SDS011;32907;41.412;2.164;2023-02-01T15:03:43;13.10;;;9.35;;
47153;SDS011;32907;41.412;2.164;2023-02-01T15:14:24;12.13;;;8.38;;
47153;SDS011;32907;41.412;2.164;2023-02-01T15:16:56;12.07;;;8.30;;
47153;SDS011;32907;41.412;2.164;2023-02-01T15:19:25;12.15;;;7.63;;
47153;SDS011;32907;41.412;2.164;2023-02-01T15:21:56;12.13;;;8.32;;
47153;SDS011;32907;41.412;2.164;2023-02-01T15:24:27;10.95;;;8.20;;
47153;SDS011;32907;41.412;2.164;2023-02-01T15:27:02;14.43;;;7.80;;
47153;SDS011;32907;41.412;2.164;2023-02-01T15:29:31;10.73;;;7.95;;
47153;SDS011;32907;41.412;2.164;2023-02-01T15:32:00;10.98;;;8.00;;
47153;SDS011;32907;41.412;2.164;2023-02-01T15:34:48;11.43;;;8.20;;
47153;SDS011;32907;41.412;2.164;2023-02-01T15:37:20;13.13;;;8.15;;
47153;SDS011;32907;41.412;2.164;2023-02-01T15:42:49;11.40;;;7.53;;
47153;SDS011;32907;41.412;2.164;2023-02-01T15:45:21;11.45;;;7.45;;
47153;SDS011;32907;41.412;2.164;2023-02-01T15:47:54;9.68;;;7.25;;
47153;SDS011;32907;41.412;2.164;2023-02-01T15:50:26;10.38;;;7.80;;
47153;SDS011;32907;41.412;2.164;2023-02-01T15:52:57;10.80;;;7.15;;
47153;SDS011;32907;41.412;2.164;2023-02-01T15:58:05;11.43;;;8.45;;
47153;SDS011;32907;41.412;2.164;2023-02-01T16:00:50;9.07;;;7.32;;
47153;SDS011;32907;41.412;2.164;2023-02-01T16:03:42;11.20;;;7.93;;
47153;SDS011;32907;41.412;2.164;2023-02-01T16:06:26;8.50;;;6.90;;
47153;SDS011;32907;41.412;2.164;2023-02-01T16:11:32;13.00;;;8.35;;
47153;SDS011;32907;41.412;2.164;2023-02-01T16:14:07;11.15;;;8.30;;
47153;SDS011;32907;41.412;2.164;2023-02-01T16:16:35;13.68;;;8.50;;
47153;SDS011;32907;41.412;2.164;2023-02-01T16:19:03;11.07;;;8.70;;
47153;SDS011;32907;41.412;2.164;2023-02-01T16:21:32;12.75;;;8.35;;
47153;SDS011;32907;41.412;2.164;2023-02-01T16:24:00;10.98;;;8.82;;
47153;SDS011;32907;41.412;2.164;2023-02-01T16:26:32;23.67;;;7.13;;
47153;SDS011;32907;41.412;2.164;2023-02-01T16:29:01;8.15;;;6.20;;
47153;SDS011;32907;41.412;2.164;2023-02-01T16:31:37;6.47;;;5.32;;
47153;SDS011;32907;41.412;2.164;2023-02-01T16:34:11;9.45;;;5.78;;
47153;SDS011;32907;41.412;2.164;2023-02-01T16:39:19;9.63;;;5.45;;
47153;SDS011;32907;41.412;2.164;2023-02-01T16:41:48;10.32;;;6.10;;
47153;SDS011;32907;41.412;2.164;2023-02-01T16:44:16;10.70;;;5.82;;
47153;SDS011;32907;41.412;2.164;2023-02-01T16:46:46;7.75;;;5.57;;
47153;SDS011;32907;41.412;2.164;2023-02-01T16:49:20;12.45;;;6.28;;
47153;SDS011;32907;41.412;2.164;2023-02-01T16:51:52;9.05;;;5.68;;
47153;SDS011;32907;41.412;2.164;2023-02-01T16:54:25;8.60;;;5.95;;
47153;SDS011;32907;41.412;2.164;2023-02-01T16:56:56;7.93;;;6.07;;
47153;SDS011;32907;41.412;2.164;2023-02-01T16:59:24;10.23;;;5.63;;
47153;SDS011;32907;41.412;2.164;2023-02-01T17:01:51;7.75;;;5.88;;
47153;SDS011;32907;41.412;2.164;2023-02-01T17:04:19;10.30;;;5.32;;
47153;SDS011;32907;41.412;2.164;2023-02-01T17:06:48;9.07;;;6.05;;
47153;SDS011;32907;41.412;2.164;2023-02-01T17:09:16;7.97;;;5.60;;
47153;SDS011;32907;41.412;2.164;2023-02-01T17:11:44;7.82;;;5.55;;
47153;SDS011;32907;41.412;2.164;2023-02-01T17:14:14;7.28;;;5.35;;
47153;SDS011;32907;41.412;2.164;2023-02-01T17:16:44;7.50;;;5.22;;
47153;SDS011;32907;41.412;2.164;2023-02-01T17:19:15;9.10;;;5.80;;
47153;SDS011;32907;41.412;2.164;2023-02-01T17:21:48;10.05;;;6.38;;
47153;SDS011;32907;41.412;2.164;2023-02-01T17:24:20;8.70;;;6.25;;
47153;SDS011;32907;41.412;2.164;2023-02-01T17:26:53;7.22;;;5.43;;
47153;SDS011;32907;41.412;2.164;2023-02-01T17:29:22;8.90;;;6.22;;
47153;SDS011;32907;41.412;2.164;2023-02-01T17:31:51;7.47;;;5.72;;
47153;SDS011;32907;41.412;2.164;2023-02-01T17:34:21;7.00;;;5.43;;
47153;SDS011;32907;41.412;2.164;2023-02-01T17:36:49;8.38;;;5.88;;
47153;SDS011;32907;41.412;2.164;2023-02-01T17:39:21;10.32;;;6.57;;
47153;SDS011;32907;41.412;2.164;2023-02-01T17:42:12;8.38;;;5.72;;
47153;SDS011;32907;41.412;2.164;2023-02-01T17:44:40;8.57;;;6.00;;
47153;SDS011;32907;41.412;2.164;2023-02-01T17:47:08;7.57;;;5.75;;
47153;SDS011;32907;41.412;2.164;2023-02-01T17:49:36;7.75;;;6.00;;
47153;SDS011;32907;41.412;2.164;2023-02-01T17:52:05;6.78;;;5.68;;
47153;SDS011;32907;41.412;2.164;2023-02-01T17:54:35;11.57;;;7.25;;
47153;SDS011;32907;41.412;2.164;2023-02-01T17:57:10;12.90;;;7.60;;
47153;SDS011;32907;41.412;2.164;2023-02-01T17:59:39;10.88;;;6.47;;
47153;SDS011;32907;41.412;2.164;2023-02-01T18:02:26;12.57;;;7.70;;
47153;SDS011;32907;41.412;2.164;2023-02-01T18:04:54;10.05;;;6.90;;
47153;SDS011;32907;41.412;2.164;2023-02-01T18:07:22;9.13;;;7.28;;